createdAt,value
2019-04-12T00:00:41.474Z,99.99
2019-04-12T00:01:41.481Z,99.99
2019-04-12T00:02:41.490Z,99.99
2019-04-12T00:03:41.500Z,99.99
2019-04-12T00:04:41.504Z,99.99
2019-04-12T00:05:41.511Z,99.99
2019-04-12T00:06:41.519Z,99.99
2019-04-12T00:07:41.528Z,99.99
2019-04-12T00:08:41.536Z,99.99
2019-04-12T00:09:41.545Z,99.99
2019-04-12T00:10:41.551Z,99.99
2019-04-12T00:11:41.562Z,99.99
2019-04-12T00:12:41.573Z,99.99
2019-04-12T00:13:41.589Z,99.99
2019-04-12T00:14:41.797Z,99.99
2019-04-12T00:15:43.632Z,99.99
2019-04-12T00:16:43.555Z,99.99
2019-04-12T00:17:41.815Z,99.99
2019-04-12T00:18:42.934Z,99.99
2019-04-12T00:19:43.424Z,99.99
2019-04-12T00:20:44.504Z,99.99
2019-04-12T00:21:42.826Z,99.99
2019-04-12T00:22:45.648Z,99.99
2019-04-12T00:23:42.986Z,99.99
2019-04-12T00:24:41.663Z,99.99
2019-04-12T00:25:41.672Z,99.99
2019-04-12T00:26:41.675Z,99.99
2019-04-12T00:27:41.685Z,99.99
2019-04-12T00:28:41.692Z,99.99
2019-04-12T00:29:41.698Z,99.99
2019-04-12T00:30:41.712Z,99.99
2019-04-12T00:31:41.714Z,99.99
2019-04-12T00:32:41.721Z,99.99
2019-04-12T00:33:41.732Z,99.99
2019-04-12T00:34:41.737Z,99.99
2019-04-12T00:35:41.748Z,99.99
2019-04-12T00:36:41.753Z,99.99
2019-04-12T00:37:41.769Z,99.99
2019-04-12T00:38:41.772Z,99.99
2019-04-12T00:39:41.776Z,99.99
2019-04-12T00:40:41.796Z,99.99
2019-04-12T00:41:41.796Z,99.99
2019-04-12T00:42:41.803Z,99.99
2019-04-12T00:43:41.812Z,99.99
2019-04-12T00:44:41.821Z,99.99
2019-04-12T00:45:41.831Z,99.99
2019-04-12T00:46:41.832Z,99.99
2019-04-12T00:47:41.844Z,99.99
2019-04-12T00:48:41.851Z,99.99
2019-04-12T00:49:41.860Z,99.99
2019-04-12T00:50:42.329Z,99.99
2019-04-12T00:51:42.683Z,99.99
2019-04-12T00:52:42.749Z,99.99
2019-04-12T00:53:44.265Z,99.99
2019-04-12T00:54:46.626Z,99.99
2019-04-12T00:55:41.902Z,99.99
2019-04-12T00:56:46.321Z,99.99
2019-04-12T00:57:45.306Z,99.99
2019-04-12T00:58:46.208Z,99.99
2019-04-12T00:59:41.936Z,99.99
2019-04-12T01:00:41.946Z,99.99
2019-04-12T01:01:41.966Z,99.99
2019-04-12T01:02:43.378Z,99.99
2019-04-12T01:03:45.873Z,99.99
2019-04-12T01:04:44.027Z,99.99
2019-04-12T01:05:41.984Z,99.99
2019-04-12T01:06:41.990Z,99.99
2019-04-12T01:07:41.996Z,99.99
2019-04-12T01:08:42.004Z,99.99
2019-04-12T01:09:42.014Z,99.99
2019-04-12T01:10:42.022Z,99.99
2019-04-12T01:11:42.035Z,99.99
2019-04-12T01:12:42.034Z,99.99
2019-04-12T01:13:42.041Z,99.99
2019-04-12T01:14:42.050Z,99.99
2019-04-12T01:15:42.070Z,99.99
2019-04-12T01:16:42.066Z,99.99
2019-04-12T01:17:42.074Z,99.99
2019-04-12T01:18:42.087Z,99.99
2019-04-12T01:19:42.094Z,99.99
2019-04-12T01:20:42.097Z,99.99
2019-04-12T01:21:42.107Z,99.99
2019-04-12T01:22:42.113Z,99.99
2019-04-12T01:23:42.137Z,99.99
2019-04-12T01:24:42.130Z,99.99
2019-04-12T01:25:44.600Z,99.99
2019-04-12T01:26:43.903Z,99.99
2019-04-12T01:27:42.151Z,99.99
2019-04-12T01:28:42.162Z,99.99
2019-04-12T01:29:42.172Z,99.99
2019-04-12T01:30:42.186Z,99.99
2019-04-12T01:31:42.186Z,99.99
2019-04-12T01:32:42.191Z,99.99
2019-04-12T01:33:42.202Z,99.99
2019-04-12T01:34:42.210Z,99.99
2019-04-12T01:35:42.214Z,99.99
2019-04-12T01:36:42.222Z,99.99
2019-04-12T01:37:42.233Z,99.99
2019-04-12T01:38:42.241Z,99.99
2019-04-12T01:39:42.247Z,99.99
2019-04-12T01:40:42.257Z,99.99
2019-04-12T01:41:42.265Z,99.99
2019-04-12T01:42:42.279Z,99.99
2019-04-12T01:43:42.282Z,99.99
2019-04-12T01:44:42.289Z,99.99
2019-04-12T01:45:42.292Z,99.99
2019-04-12T01:46:42.299Z,99.99
2019-04-12T01:47:42.308Z,99.99
2019-04-12T01:48:42.316Z,99.99
2019-04-12T01:49:42.323Z,99.99
2019-04-12T01:50:42.333Z,99.99
2019-04-12T01:51:42.341Z,99.99
2019-04-12T01:52:42.349Z,99.99
2019-04-12T01:53:42.355Z,99.99
2019-04-12T01:54:42.366Z,99.99
2019-04-12T01:55:42.376Z,99.99
2019-04-12T01:56:42.384Z,99.99
2019-04-12T01:57:42.390Z,99.99
2019-04-12T01:58:42.393Z,99.99
2019-04-12T01:59:42.401Z,99.99
2019-04-12T02:00:42.413Z,99.99
2019-04-12T02:01:42.416Z,99.99
2019-04-12T02:02:42.431Z,99.99
2019-04-12T02:03:42.438Z,99.99
2019-04-12T02:04:42.446Z,99.99
2019-04-12T02:05:42.449Z,99.99
2019-04-12T02:06:42.457Z,99.99
2019-04-12T02:07:42.468Z,99.99
2019-04-12T02:08:42.476Z,99.99
2019-04-12T02:09:42.483Z,99.99
2019-04-12T02:10:42.492Z,99.99
2019-04-12T02:11:42.497Z,99.99
2019-04-12T02:12:42.506Z,99.99
2019-04-12T02:13:42.515Z,99.99
2019-04-12T02:14:42.521Z,99.99
2019-04-12T02:15:42.528Z,99.99
2019-04-12T02:16:42.632Z,99.99
2019-04-12T02:17:42.548Z,99.99
2019-04-12T02:18:42.556Z,99.99
2019-04-12T02:19:42.562Z,99.99
2019-04-12T02:20:42.568Z,99.99
2019-04-12T02:21:42.571Z,99.99
2019-04-12T02:22:42.584Z,99.99
2019-04-12T02:23:42.591Z,99.99
2019-04-12T02:24:42.599Z,99.99
2019-04-12T02:25:42.607Z,99.99
2019-04-12T02:26:42.615Z,99.99
2019-04-12T02:27:42.622Z,99.99
2019-04-12T02:28:42.627Z,99.99
2019-04-12T02:29:42.635Z,99.99
2019-04-12T02:30:42.646Z,99.99
2019-04-12T02:31:42.652Z,99.99
2019-04-12T02:32:42.665Z,99.99
2019-04-12T02:33:42.676Z,99.99
2019-04-12T02:34:42.677Z,99.99
2019-04-12T02:35:42.697Z,99.99
2019-04-12T02:36:42.696Z,99.99
2019-04-12T02:37:42.716Z,99.99
2019-04-12T02:38:42.711Z,99.99
2019-04-12T02:39:42.726Z,99.99
2019-04-12T02:40:42.821Z,99.99
2019-04-12T02:41:42.731Z,99.99
2019-04-12T02:42:42.769Z,99.99
2019-04-12T02:43:42.757Z,99.99
2019-04-12T02:44:42.761Z,99.99
2019-04-12T02:45:42.780Z,99.99
2019-04-12T02:46:42.777Z,99.99
2019-04-12T02:47:42.777Z,99.99
2019-04-12T02:48:42.789Z,99.99
2019-04-12T02:49:42.789Z,99.99
2019-04-12T02:50:42.801Z,99.99
2019-04-12T02:51:42.806Z,99.99
2019-04-12T02:52:42.817Z,99.99
2019-04-12T02:53:42.825Z,99.99
2019-04-12T02:54:42.832Z,99.99
2019-04-12T02:55:42.838Z,99.99
2019-04-12T02:56:42.847Z,99.99
2019-04-12T02:57:42.854Z,99.99
2019-04-12T02:58:42.863Z,99.99
2019-04-12T02:59:42.867Z,99.99
2019-04-12T03:00:42.877Z,99.99
2019-04-12T03:01:42.889Z,99.99
2019-04-12T03:02:42.894Z,99.99
2019-04-12T03:03:42.901Z,99.99
2019-04-12T03:04:42.903Z,99.99
2019-04-12T03:05:42.919Z,99.99
2019-04-12T03:06:42.923Z,99.99
2019-04-12T03:07:42.933Z,99.99
2019-04-12T03:08:42.942Z,99.99
2019-04-12T03:09:42.943Z,99.99
2019-04-12T03:10:42.959Z,99.99
2019-04-12T03:11:42.957Z,99.99
2019-04-12T03:12:42.981Z,99.99
2019-04-12T03:13:42.975Z,99.99
2019-04-12T03:14:42.984Z,99.99
2019-04-12T03:15:42.991Z,99.99
2019-04-12T03:16:42.998Z,99.99
2019-04-12T03:17:43.006Z,99.99
2019-04-12T03:18:43.016Z,99.99
2019-04-12T03:19:43.039Z,99.99
2019-04-12T03:20:43.030Z,99.99
2019-04-12T03:21:43.035Z,99.99
2019-04-12T03:22:43.047Z,99.99
2019-04-12T03:23:43.054Z,99.99
2019-04-12T03:24:43.059Z,99.99
2019-04-12T03:25:52.675Z,99.99
2019-04-12T03:26:43.084Z,99.99
2019-04-12T03:27:43.092Z,99.99
2019-04-12T03:28:43.090Z,99.99
2019-04-12T03:29:43.152Z,99.99
2019-04-12T03:30:43.145Z,99.99
2019-04-12T03:31:43.117Z,99.99
2019-04-12T03:32:43.137Z,99.99
2019-04-12T03:33:43.122Z,99.99
2019-04-12T03:34:43.138Z,99.99
2019-04-12T03:35:43.786Z,99.99
2019-04-12T03:36:43.149Z,99.99
2019-04-12T03:37:43.151Z,99.99
2019-04-12T03:38:43.160Z,99.99
2019-04-12T03:39:43.165Z,99.99
2019-04-12T03:40:43.176Z,99.99
2019-04-12T03:41:43.187Z,99.99
2019-04-12T03:42:43.191Z,99.99
2019-04-12T03:43:43.211Z,99.99
2019-04-12T03:44:43.204Z,99.99
2019-04-12T03:45:43.211Z,99.99
2019-04-12T03:46:43.218Z,99.99
2019-04-12T03:47:43.223Z,99.99
2019-04-12T03:48:43.237Z,99.99
2019-04-12T03:49:43.237Z,99.99
2019-04-12T03:50:43.252Z,99.99
2019-04-12T03:51:43.258Z,99.99
2019-04-12T03:52:43.263Z,99.99
2019-04-12T03:53:43.271Z,99.99
2019-04-12T03:54:43.277Z,99.99
2019-04-12T03:55:43.284Z,99.99
2019-04-12T03:56:43.289Z,99.99
2019-04-12T03:57:43.309Z,99.99
2019-04-12T03:58:43.320Z,99.99
2019-04-12T03:59:43.322Z,99.99
2019-04-12T04:00:43.324Z,99.99
2019-04-12T04:01:43.332Z,99.99
2019-04-12T04:02:43.348Z,99.99
2019-04-12T04:03:43.355Z,99.99
2019-04-12T04:04:43.349Z,99.99
2019-04-12T04:05:43.365Z,99.99
2019-04-12T04:06:43.369Z,99.99
2019-04-12T04:07:43.376Z,99.99
2019-04-12T04:08:43.387Z,99.99
2019-04-12T04:09:43.390Z,99.99
2019-04-12T04:10:43.396Z,99.99
2019-04-12T04:11:43.401Z,99.99
2019-04-12T04:12:43.412Z,99.99
2019-04-12T04:13:43.416Z,99.99
2019-04-12T04:14:43.425Z,99.99
2019-04-12T04:15:43.432Z,99.99
2019-04-12T04:16:43.440Z,99.99
2019-04-12T04:17:43.446Z,99.99
2019-04-12T04:18:43.453Z,99.99
2019-04-12T04:19:43.464Z,99.99
2019-04-12T04:20:43.473Z,99.99
2019-04-12T04:21:43.479Z,99.99
2019-04-12T04:22:43.498Z,99.99
2019-04-12T04:23:43.497Z,99.99
2019-04-12T04:24:43.500Z,99.99
2019-04-12T04:25:43.503Z,99.99
2019-04-12T04:26:43.513Z,99.99
2019-04-12T04:27:43.533Z,99.99
2019-04-12T04:28:43.529Z,99.99
2019-04-12T04:29:43.537Z,99.99
2019-04-12T04:30:43.557Z,99.99
2019-04-12T04:31:43.549Z,99.99
2019-04-12T04:32:43.556Z,99.99
2019-04-12T04:33:43.564Z,99.99
2019-04-12T04:34:43.568Z,99.99
2019-04-12T04:35:43.580Z,99.99
2019-04-12T04:36:43.589Z,99.99
2019-04-12T04:37:43.596Z,99.99
2019-04-12T04:38:43.603Z,99.99
2019-04-12T04:39:43.609Z,99.99
2019-04-12T04:40:43.620Z,99.99
2019-04-12T04:41:43.626Z,99.99
2019-04-12T04:42:43.632Z,99.99
2019-04-12T04:43:43.641Z,99.99
2019-04-12T04:44:43.649Z,99.99
2019-04-12T04:45:43.653Z,99.99
2019-04-12T04:46:43.667Z,99.99
2019-04-12T04:47:43.669Z,99.99
2019-04-12T04:48:43.677Z,99.99
2019-04-12T04:49:43.687Z,99.99
2019-04-12T04:50:43.697Z,99.99
2019-04-12T04:51:43.695Z,99.99
2019-04-12T04:52:43.701Z,99.99
2019-04-12T04:53:43.708Z,99.99
2019-04-12T04:54:43.715Z,99.99
2019-04-12T04:55:43.723Z,99.99
2019-04-12T04:56:43.735Z,99.99
2019-04-12T04:57:43.740Z,99.99
2019-04-12T04:58:43.748Z,99.99
2019-04-12T04:59:43.752Z,99.99
2019-04-12T05:00:43.761Z,99.99
2019-04-12T05:01:43.773Z,99.99
2019-04-12T05:02:43.774Z,99.99
2019-04-12T05:03:43.785Z,99.99
2019-04-12T05:04:43.793Z,99.99
2019-04-12T05:05:43.795Z,99.99
2019-04-12T05:06:43.806Z,99.99
2019-04-12T05:07:43.822Z,99.99
2019-04-12T05:08:43.818Z,99.99
2019-04-12T05:09:43.831Z,99.99
2019-04-12T05:10:43.838Z,99.99
2019-04-12T05:11:43.843Z,99.99
2019-04-12T05:12:43.847Z,99.99
2019-04-12T05:13:43.856Z,99.99
2019-04-12T05:14:43.863Z,99.99
2019-04-12T05:15:43.869Z,99.99
2019-04-12T05:16:43.879Z,99.99
2019-04-12T05:17:43.883Z,99.99
2019-04-12T05:18:43.900Z,99.99
2019-04-12T05:19:43.897Z,99.99
2019-04-12T05:20:43.913Z,99.99
2019-04-12T05:21:43.916Z,99.99
2019-04-12T05:22:43.974Z,99.99
2019-04-12T05:23:43.940Z,99.99
2019-04-12T05:24:43.937Z,99.99
2019-04-12T05:25:43.948Z,99.99
2019-04-12T05:26:45.790Z,99.99
2019-04-12T05:27:43.959Z,99.99
2019-04-12T05:28:43.969Z,99.99
2019-04-12T05:29:43.971Z,99.99
2019-04-12T05:30:43.978Z,99.99
2019-04-12T05:31:43.991Z,99.99
2019-04-12T05:32:44.034Z,99.99
2019-04-12T05:33:44.005Z,99.99
2019-04-12T05:34:44.007Z,99.99
2019-04-12T05:35:44.018Z,99.99
2019-04-12T05:36:44.022Z,99.99
2019-04-12T05:37:44.029Z,99.99
2019-04-12T05:38:44.038Z,99.99
2019-04-12T05:39:44.045Z,99.99
2019-04-12T05:40:44.053Z,99.99
2019-04-12T05:41:44.059Z,99.99
2019-04-12T05:42:44.066Z,99.99
2019-04-12T05:43:44.080Z,99.99
2019-04-12T05:44:44.081Z,99.99
2019-04-12T05:45:44.088Z,99.99
2019-04-12T05:46:44.095Z,99.99
2019-04-12T05:47:44.108Z,99.99
2019-04-12T05:48:44.110Z,99.99
2019-04-12T05:49:44.125Z,99.99
2019-04-12T05:50:44.123Z,99.99
2019-04-12T05:51:44.133Z,99.99
2019-04-12T05:52:44.138Z,99.99
2019-04-12T05:53:44.149Z,99.99
2019-04-12T05:54:44.152Z,99.99
2019-04-12T05:55:44.168Z,99.99
2019-04-12T05:56:44.168Z,99.99
2019-04-12T05:57:44.174Z,99.99
2019-04-12T05:58:44.181Z,99.99
2019-04-12T05:59:44.191Z,99.99
2019-04-12T06:00:45.773Z,99.99
2019-04-12T06:01:44.204Z,99.99
2019-04-12T06:02:44.209Z,99.99
2019-04-12T06:03:44.221Z,99.99
2019-04-12T06:04:44.224Z,99.99
2019-04-12T06:05:44.234Z,99.99
2019-04-12T06:06:44.239Z,99.99
2019-04-12T06:07:44.246Z,99.99
2019-04-12T06:08:44.253Z,99.99
2019-04-12T06:09:44.263Z,99.99
2019-04-12T06:10:44.271Z,99.99
2019-04-12T06:11:44.277Z,99.99
2019-04-12T06:12:44.286Z,99.99
2019-04-12T06:13:44.293Z,99.99
2019-04-12T06:14:44.296Z,99.99
2019-04-12T06:15:44.389Z,99.99
2019-04-12T06:16:44.309Z,99.99
2019-04-12T06:17:44.319Z,99.99
2019-04-12T06:18:44.323Z,99.99
2019-04-12T06:19:44.336Z,99.99
2019-04-12T06:20:44.339Z,99.99
2019-04-12T06:21:44.350Z,99.99
2019-04-12T06:22:44.352Z,99.99
2019-04-12T06:23:44.363Z,99.99
2019-04-12T06:24:44.367Z,99.99
2019-04-12T06:25:44.375Z,99.99
2019-04-12T06:26:44.393Z,99.99
2019-04-12T06:27:44.386Z,99.99
2019-04-12T06:28:44.394Z,99.99
2019-04-12T06:29:45.221Z,99.99
2019-04-12T06:30:44.408Z,99.99
2019-04-12T06:31:44.418Z,99.99
2019-04-12T06:32:44.425Z,99.99
2019-04-12T06:33:44.428Z,99.99
2019-04-12T06:34:44.436Z,99.99
2019-04-12T06:35:44.447Z,99.99
2019-04-12T06:36:44.451Z,99.99
2019-04-12T06:37:44.457Z,99.99
2019-04-12T06:38:44.463Z,99.99
2019-04-12T06:39:44.484Z,99.99
2019-04-12T06:40:44.479Z,99.99
2019-04-12T06:41:44.484Z,99.99
2019-04-12T06:42:44.490Z,99.99
2019-04-12T06:43:44.501Z,99.99
2019-04-12T06:44:44.507Z,99.99
2019-04-12T06:45:44.518Z,99.99
2019-04-12T06:46:44.523Z,99.99
2019-04-12T06:47:44.532Z,99.99
2019-04-12T06:48:44.556Z,99.99
2019-04-12T06:49:44.543Z,99.99
2019-04-12T06:50:44.553Z,99.99
2019-04-12T06:51:44.558Z,99.99
2019-04-12T06:52:44.567Z,99.99
2019-04-12T06:53:44.567Z,99.99
2019-04-12T06:54:44.577Z,99.99
2019-04-12T06:55:44.585Z,99.99
2019-04-12T06:56:44.592Z,99.99
2019-04-12T06:57:44.599Z,99.99
2019-04-12T06:58:44.602Z,99.99
2019-04-12T06:59:44.615Z,99.99
2019-04-12T07:00:44.622Z,99.99
2019-04-12T07:01:44.622Z,99.99
2019-04-12T07:02:44.637Z,99.99
2019-04-12T07:03:56.051Z,99.99
2019-04-12T07:04:44.648Z,99.99
2019-04-12T07:05:44.652Z,99.99
2019-04-12T07:06:45.025Z,99.99
2019-04-12T07:07:44.667Z,99.99
2019-04-12T07:08:44.673Z,99.99
2019-04-12T07:09:44.719Z,99.99
2019-04-12T07:10:44.685Z,99.99
2019-04-12T07:11:44.697Z,99.99
2019-04-12T07:12:44.699Z,99.99
2019-04-12T07:13:44.705Z,99.99
2019-04-12T07:14:44.713Z,99.99
2019-04-12T07:15:44.720Z,99.99
2019-04-12T07:16:44.726Z,99.99
2019-04-12T07:17:44.736Z,99.99
2019-04-12T07:18:44.740Z,99.99
2019-04-12T07:19:44.754Z,99.99
2019-04-12T07:20:44.753Z,99.99
2019-04-12T07:21:44.760Z,99.99
2019-04-12T07:22:44.769Z,99.99
2019-04-12T07:23:44.777Z,99.99
2019-04-12T07:24:44.783Z,99.99
2019-04-12T07:25:44.787Z,99.99
2019-04-12T07:26:44.795Z,99.99
2019-04-12T07:27:44.810Z,99.99
2019-04-12T07:28:44.813Z,99.99
2019-04-12T07:29:44.818Z,99.99
2019-04-12T07:30:56.074Z,99.99
2019-04-12T07:31:44.830Z,99.99
2019-04-12T07:32:44.841Z,99.99
2019-04-12T07:33:44.848Z,99.99
2019-04-12T07:34:44.851Z,99.99
2019-04-12T07:35:44.858Z,99.99
2019-04-12T07:36:44.870Z,99.99
2019-04-12T07:37:44.872Z,99.99
2019-04-12T07:38:44.884Z,99.99
2019-04-12T07:39:44.888Z,99.99
2019-04-12T07:40:44.905Z,99.99
2019-04-12T07:41:44.900Z,99.99
2019-04-12T07:42:44.907Z,99.99
2019-04-12T07:43:44.914Z,99.99
2019-04-12T07:44:44.923Z,99.99
2019-04-12T07:45:44.928Z,99.99
2019-04-12T07:46:44.943Z,99.99
2019-04-12T07:47:44.943Z,99.99
2019-04-12T07:48:44.950Z,99.99
2019-04-12T07:49:44.960Z,99.99
2019-04-12T07:50:44.966Z,99.99
2019-04-12T07:51:44.971Z,99.99
2019-04-12T07:52:44.983Z,99.99
2019-04-12T07:53:44.984Z,99.99
2019-04-12T07:54:44.996Z,99.99
2019-04-12T07:55:45.000Z,99.99
2019-04-12T07:56:45.006Z,99.99
2019-04-12T07:57:47.250Z,99.99
2019-04-12T07:58:45.022Z,99.99
2019-04-12T07:59:45.030Z,99.99
2019-04-12T08:00:45.036Z,99.99
2019-04-12T08:01:45.042Z,99.99
2019-04-12T08:02:45.048Z,99.99
2019-04-12T08:03:45.055Z,99.99
2019-04-12T08:04:45.069Z,99.99
2019-04-12T08:05:45.073Z,99.99
2019-04-12T08:06:45.077Z,99.99
2019-04-12T08:07:45.088Z,99.99
2019-04-12T08:08:45.092Z,99.99
2019-04-12T08:09:45.096Z,99.99
2019-04-12T08:10:45.107Z,99.99
2019-04-12T08:11:46.464Z,99.99
2019-04-12T08:12:45.123Z,99.99
2019-04-12T08:13:45.127Z,99.99
2019-04-12T08:14:45.137Z,99.99
2019-04-12T08:15:45.143Z,99.99
2019-04-12T08:16:45.153Z,99.99
2019-04-12T08:17:45.154Z,99.99
2019-04-12T08:18:45.169Z,99.99
2019-04-12T08:19:45.172Z,99.99
2019-04-12T08:20:45.178Z,99.99
2019-04-12T08:21:45.182Z,99.99
2019-04-12T08:22:45.194Z,99.99
2019-04-12T08:23:45.205Z,99.99
2019-04-12T08:24:45.209Z,99.99
2019-04-12T08:25:45.229Z,99.99
2019-04-12T08:26:45.222Z,99.99
2019-04-12T08:27:45.230Z,99.99
2019-04-12T08:28:45.237Z,99.99
2019-04-12T08:29:45.248Z,99.99
2019-04-12T08:30:45.247Z,99.99
2019-04-12T08:31:45.254Z,99.99
2019-04-12T08:32:45.262Z,99.99
2019-04-12T08:33:45.268Z,99.99
2019-04-12T08:34:45.286Z,99.99
2019-04-12T08:35:45.288Z,99.99
2019-04-12T08:36:45.294Z,99.99
2019-04-12T08:37:45.300Z,99.99
2019-04-12T08:38:45.307Z,99.99
2019-04-12T08:39:45.315Z,99.99
2019-04-12T08:40:45.319Z,99.99
2019-04-12T08:41:46.843Z,99.99
2019-04-12T08:42:45.337Z,99.99
2019-04-12T08:43:45.343Z,99.99
2019-04-12T08:44:45.356Z,99.99
2019-04-12T08:45:45.358Z,99.99
2019-04-12T08:46:45.366Z,99.99
2019-04-12T08:47:45.378Z,99.99
2019-04-12T08:48:45.402Z,99.99
2019-04-12T08:49:49.418Z,99.99
2019-04-12T08:50:45.403Z,99.99
2019-04-12T08:51:45.429Z,99.99
2019-04-12T08:52:45.444Z,99.99
2019-04-12T08:53:45.436Z,99.99
2019-04-12T08:54:45.459Z,99.99
2019-04-12T08:55:45.427Z,99.99
2019-04-12T08:56:45.455Z,99.99
2019-04-12T08:57:45.497Z,99.99
2019-04-12T08:58:45.452Z,99.99
2019-04-12T08:59:45.514Z,99.99
2019-04-12T09:00:45.512Z,99.99
2019-04-12T09:01:45.470Z,99.99
2019-04-12T09:02:45.479Z,99.99
2019-04-12T09:03:45.499Z,99.99
2019-04-12T09:04:45.557Z,99.99
2019-04-12T09:05:45.517Z,99.99
2019-04-12T09:06:45.588Z,99.99
2019-04-12T09:07:45.567Z,99.99
2019-04-12T09:08:45.652Z,99.99
2019-04-12T09:09:45.633Z,99.99
2019-04-12T09:10:45.595Z,99.99
2019-04-12T09:11:45.586Z,99.99
2019-04-12T09:12:45.679Z,99.99
2019-04-12T09:13:45.623Z,99.99
2019-04-12T09:14:45.569Z,99.99
2019-04-12T09:15:45.593Z,99.99
2019-04-12T09:16:45.603Z,99.99
2019-04-12T09:17:45.601Z,99.99
2019-04-12T09:18:45.645Z,99.99
2019-04-12T09:19:45.670Z,99.99
2019-04-12T09:20:45.699Z,99.99
2019-04-12T09:21:45.650Z,99.99
2019-04-12T09:22:45.652Z,99.99
2019-04-12T09:23:45.635Z,99.99
2019-04-12T09:24:45.730Z,99.99
2019-04-12T09:25:45.692Z,99.99
2019-04-12T09:26:45.715Z,99.99
2019-04-12T09:27:45.701Z,99.99
2019-04-12T09:28:45.674Z,99.99
2019-04-12T09:29:45.809Z,99.99
2019-04-12T09:30:45.708Z,99.99
2019-04-12T09:31:45.697Z,99.99
2019-04-12T09:32:45.717Z,99.99
2019-04-12T09:33:46.694Z,99.99
2019-04-12T09:34:45.724Z,99.99
2019-04-12T09:35:47.203Z,99.99
2019-04-12T09:36:45.735Z,99.99
2019-04-12T09:37:45.745Z,99.99
2019-04-12T09:38:45.749Z,99.99
2019-04-12T09:39:45.763Z,99.99
2019-04-12T09:40:45.771Z,99.99
2019-04-12T09:41:45.777Z,99.99
2019-04-12T09:42:45.785Z,99.99
2019-04-12T09:43:45.794Z,99.99
2019-04-12T09:44:45.800Z,99.99
2019-04-12T09:45:45.805Z,99.99
2019-04-12T09:46:45.815Z,99.99
2019-04-12T09:47:45.821Z,99.99
2019-04-12T09:48:45.828Z,99.99
2019-04-12T09:49:45.841Z,99.99
2019-04-12T09:50:45.848Z,99.99
2019-04-12T09:51:45.855Z,99.99
2019-04-12T09:52:45.865Z,99.99
2019-04-12T09:53:45.870Z,99.99
2019-04-12T09:54:45.881Z,99.99
2019-04-12T09:55:45.889Z,99.99
2019-04-12T09:56:45.896Z,99.99
2019-04-12T09:57:45.899Z,99.99
2019-04-12T09:58:45.912Z,99.99
2019-04-12T09:59:45.918Z,99.99
2019-04-12T10:00:45.932Z,99.99
2019-04-12T10:01:45.935Z,99.99
2019-04-12T10:02:45.945Z,99.99
2019-04-12T10:03:45.954Z,99.99
2019-04-12T10:04:45.965Z,99.99
2019-04-12T10:05:45.964Z,99.99
2019-04-12T10:06:45.972Z,99.99
2019-04-12T10:07:45.981Z,99.99
2019-04-12T10:08:45.991Z,99.99
2019-04-12T10:09:46.004Z,99.99
2019-04-12T10:10:46.006Z,99.99
2019-04-12T10:11:46.020Z,99.99
2019-04-12T10:12:46.025Z,99.99
2019-04-12T10:13:46.030Z,99.49
2019-04-12T10:14:46.041Z,99.20
2019-04-12T10:15:46.052Z,99.99
2019-04-12T10:16:46.059Z,99.99
2019-04-12T10:17:46.070Z,99.99
2019-04-12T10:18:46.079Z,99.30
2019-04-12T10:19:46.087Z,99.99
2019-04-12T10:20:46.095Z,99.99
2019-04-12T10:21:46.100Z,95.84
2019-04-12T10:22:46.113Z,93.80
2019-04-12T10:23:46.121Z,94.89
2019-04-12T10:24:46.131Z,97.35
2019-04-12T10:25:46.140Z,99.99
2019-04-12T10:26:46.149Z,99.99
2019-04-12T10:27:46.156Z,99.99
2019-04-12T10:28:50.531Z,99.99
2019-04-12T10:29:46.175Z,99.99
2019-04-12T10:30:46.194Z,99.99
2019-04-12T10:31:46.196Z,99.35
2019-04-12T10:32:46.205Z,99.58
2019-04-12T10:33:46.997Z,99.99
2019-04-12T10:34:55.701Z,97.74
2019-04-12T10:35:46.231Z,96.83
2019-04-12T10:36:51.377Z,95.98
2019-04-12T10:37:46.248Z,92.80
2019-04-12T10:38:46.259Z,89.76
2019-04-12T10:39:46.267Z,90.80
2019-04-12T10:40:46.275Z,88.71
2019-04-12T10:41:46.283Z,87.57
2019-04-12T10:42:46.291Z,89.47
2019-04-12T10:43:46.302Z,90.23
2019-04-12T10:44:46.314Z,87.82
2019-04-12T10:45:46.328Z,89.20
2019-04-12T10:46:46.331Z,91.38
2019-04-12T10:47:46.343Z,88.20
2019-04-12T10:48:46.359Z,92.61
2019-04-12T10:49:46.361Z,95.70
2019-04-12T10:50:46.374Z,96.12
2019-04-12T10:51:46.382Z,91.94
2019-04-12T10:52:46.391Z,87.57
2019-04-12T10:53:46.400Z,89.43
2019-04-12T10:54:46.415Z,90.76
2019-04-12T10:55:46.417Z,90.62
2019-04-12T10:56:46.427Z,91.42
2019-04-12T10:57:46.436Z,91.33
2019-04-12T10:58:46.453Z,87.34
2019-04-12T10:59:46.461Z,88.34
2019-04-12T11:00:46.467Z,90.71
2019-04-12T11:01:46.483Z,92.09
2019-04-12T11:02:46.484Z,88.01
2019-04-12T11:03:46.497Z,86.72
2019-04-12T11:04:46.505Z,87.76
2019-04-12T11:05:46.515Z,84.21
2019-04-12T11:06:46.530Z,86.58
2019-04-12T11:07:46.534Z,86.63
2019-04-12T11:08:46.549Z,86.63
2019-04-12T11:09:46.557Z,86.63
2019-04-12T11:10:46.568Z,89.43
2019-04-12T11:11:46.578Z,88.34
2019-04-12T11:12:46.584Z,83.87
2019-04-12T11:13:46.593Z,84.53
2019-04-12T11:14:46.604Z,81.36
2019-04-12T11:15:46.614Z,80.51
2019-04-12T11:16:46.632Z,82.40
2019-04-12T11:17:46.639Z,82.69
2019-04-12T11:18:46.649Z,84.11
2019-04-12T11:19:46.658Z,84.25
2019-04-12T11:20:46.663Z,84.06
2019-04-12T11:21:46.674Z,81.54
2019-04-12T11:22:46.687Z,78.88
2019-04-12T11:23:46.695Z,77.64
2019-04-12T11:24:46.706Z,78.02
2019-04-12T11:25:46.717Z,76.18
2019-04-12T11:26:46.727Z,78.27
2019-04-12T11:27:46.739Z,79.60
2019-04-12T11:28:46.753Z,78.36
2019-04-12T11:29:46.755Z,79.22
2019-04-12T11:30:46.766Z,80.45
2019-04-12T11:31:46.780Z,78.11
2019-04-12T11:32:46.790Z,77.55
2019-04-12T11:33:46.801Z,76.31
2019-04-12T11:34:46.813Z,75.26
2019-04-12T11:35:46.819Z,75.07
2019-04-12T11:36:46.836Z,75.32
2019-04-12T11:37:46.847Z,75.13
2019-04-12T11:38:46.851Z,76.37
2019-04-12T11:39:46.867Z,75.07
2019-04-12T11:40:46.876Z,76.06
2019-04-12T11:41:46.889Z,72.64
2019-04-12T11:42:46.896Z,70.54
2019-04-12T11:43:46.910Z,70.83
2019-04-12T11:44:46.927Z,71.56
2019-04-12T11:45:46.932Z,71.90
2019-04-12T11:46:46.942Z,74.41
2019-04-12T11:47:46.953Z,72.13
2019-04-12T11:48:46.963Z,69.81
2019-04-12T11:49:46.970Z,70.99
2019-04-12T11:50:46.987Z,71.27
2019-04-12T11:51:46.996Z,69.12
2019-04-12T11:52:47.009Z,68.55
2019-04-12T11:53:47.017Z,67.85
2019-04-12T11:54:47.030Z,69.31
2019-04-12T11:55:47.039Z,70.64
2019-04-12T11:56:47.047Z,67.88
2019-04-12T11:57:47.062Z,67.03
2019-04-12T11:58:48.250Z,66.84
2019-04-12T11:59:47.090Z,65.99
2019-04-12T12:00:47.095Z,68.87
2019-04-12T12:01:47.107Z,67.35
2019-04-12T12:02:47.115Z,67.88
2019-04-12T12:03:47.125Z,67.57
2019-04-12T12:04:47.138Z,71.44
2019-04-12T12:05:47.149Z,66.11
2019-04-12T12:06:47.163Z,63.79
2019-04-12T12:07:50.235Z,64.14
2019-04-12T12:08:47.187Z,68.17
2019-04-12T12:09:47.199Z,67.07
2019-04-12T12:10:47.207Z,63.73
2019-04-12T12:11:47.225Z,61.90
2019-04-12T12:12:47.231Z,66.05
2019-04-12T12:13:47.240Z,63.17
2019-04-12T12:14:47.252Z,64.31
2019-04-12T12:15:47.276Z,65.06
2019-04-12T12:16:47.281Z,64.43
2019-04-12T12:17:47.294Z,63.39
2019-04-12T12:18:47.307Z,62.65
2019-04-12T12:19:47.369Z,60.53
2019-04-12T12:20:47.328Z,60.57
2019-04-12T12:21:47.338Z,62.78
2019-04-12T12:22:47.353Z,61.55
2019-04-12T12:23:47.370Z,62.34
2019-04-12T12:24:47.374Z,59.48
2019-04-12T12:25:47.388Z,59.39
2019-04-12T12:26:47.396Z,59.17
2019-04-12T12:27:47.413Z,59.86
2019-04-12T12:28:47.426Z,60.66
2019-04-12T12:29:47.439Z,57.67
2019-04-12T12:30:47.452Z,59.01
2019-04-12T12:31:47.460Z,59.10
2019-04-12T12:32:47.476Z,59.61
2019-04-12T12:33:47.482Z,57.73
2019-04-12T12:34:47.604Z,53.64
2019-04-12T12:35:47.521Z,53.06
2019-04-12T12:36:47.522Z,53.56
2019-04-12T12:37:47.536Z,53.09
2019-04-12T12:38:47.554Z,53.92
2019-04-12T12:39:47.562Z,54.94
2019-04-12T12:40:47.577Z,56.85
2019-04-12T12:41:47.589Z,57.89
2019-04-12T12:42:47.598Z,58.21
2019-04-12T12:43:47.613Z,53.77
2019-04-12T12:44:47.627Z,52.92
2019-04-12T12:45:47.642Z,55.77
2019-04-12T12:46:47.652Z,59.99
2019-04-12T12:47:47.665Z,57.64
2019-04-12T12:48:47.678Z,55.22
2019-04-12T12:49:47.694Z,53.99
2019-04-12T12:50:47.708Z,53.01
2019-04-12T12:51:47.721Z,54.91
2019-04-12T12:52:47.729Z,53.36